sensor_id;sensor_type;location;lat;lon;timestamp;P1;durP1;ratioP1;P2;durP2;ratioP2
43706;SDS011;61348;53.392;-6.248;2023-05-07T00:01:28;14.32;;;4.47;;
43706;SDS011;61348;53.392;-6.248;2023-05-07T00:03:54;9.85;;;4.10;;
43706;SDS011;61348;53.392;-6.248;2023-05-07T00:06:22;11.50;;;4.15;;
43706;SDS011;61348;53.392;-6.248;2023-05-07T00:08:49;10.60;;;3.95;;
43706;SDS011;61348;53.392;-6.248;2023-05-07T00:11:15;11.13;;;3.47;;
43706;SDS011;61348;53.392;-6.248;2023-05-07T00:13:42;6.88;;;3.33;;
43706;SDS011;61348;53.392;-6.248;2023-05-07T00:16:09;15.18;;;3.85;;
43706;SDS011;61348;53.392;-6.248;2023-05-07T00:18:36;10.18;;;3.67;;
43706;SDS011;61348;53.392;-6.248;2023-05-07T00:21:03;8.85;;;3.50;;
43706;SDS011;61348;53.392;-6.248;2023-05-07T00:23:29;14.77;;;4.05;;
43706;SDS011;61348;53.392;-6.248;2023-05-07T00:25:56;10.57;;;3.63;;
43706;SDS011;61348;53.392;-6.248;2023-05-07T00:28:25;11.15;;;3.83;;
43706;SDS011;61348;53.392;-6.248;2023-05-07T00:30:52;12.45;;;3.50;;
43706;SDS011;61348;53.392;-6.248;2023-05-07T00:33:19;16.00;;;4.75;;
43706;SDS011;61348;53.392;-6.248;2023-05-07T00:35:47;9.90;;;3.25;;
43706;SDS011;61348;53.392;-6.248;2023-05-07T00:38:14;8.80;;;3.63;;
43706;SDS011;61348;53.392;-6.248;2023-05-07T00:40:41;11.07;;;3.72;;
43706;SDS011;61348;53.392;-6.248;2023-05-07T00:43:08;15.40;;;4.57;;
43706;SDS011;61348;53.392;-6.248;2023-05-07T00:45:35;13.98;;;5.03;;
43706;SDS011;61348;53.392;-6.248;2023-05-07T00:48:02;14.13;;;4.00;;
43706;SDS011;61348;53.392;-6.248;2023-05-07T00:50:30;13.77;;;4.38;;
43706;SDS011;61348;53.392;-6.248;2023-05-07T00:52:57;11.32;;;4.03;;
43706;SDS011;61348;53.392;-6.248;2023-05-07T00:55:25;6.75;;;4.20;;
43706;SDS011;61348;53.392;-6.248;2023-05-07T00:57:52;10.60;;;4.15;;
43706;SDS011;61348;53.392;-6.248;2023-05-07T01:00:19;15.13;;;4.25;;
43706;SDS011;61348;53.392;-6.248;2023-05-07T01:02:46;8.70;;;4.32;;
43706;SDS011;61348;53.392;-6.248;2023-05-07T01:05:14;8.48;;;3.63;;
43706;SDS011;61348;53.392;-6.248;2023-05-07T01:07:43;13.93;;;4.47;;
43706;SDS011;61348;53.392;-6.248;2023-05-07T01:10:11;11.73;;;4.07;;
43706;SDS011;61348;53.392;-6.248;2023-05-07T01:12:39;14.68;;;4.05;;
43706;SDS011;61348;53.392;-6.248;2023-05-07T01:15:07;8.38;;;3.45;;
43706;SDS011;61348;53.392;-6.248;2023-05-07T01:17:36;9.52;;;3.63;;
43706;SDS011;61348;53.392;-6.248;2023-05-07T01:20:04;13.05;;;3.28;;
43706;SDS011;61348;53.392;-6.248;2023-05-07T01:22:33;10.77;;;3.08;;
43706;SDS011;61348;53.392;-6.248;2023-05-07T01:25:03;10.95;;;3.35;;
43706;SDS011;61348;53.392;-6.248;2023-05-07T01:27:31;10.85;;;3.00;;
43706;SDS011;61348;53.392;-6.248;2023-05-07T01:29:59;7.50;;;3.35;;
43706;SDS011;61348;53.392;-6.248;2023-05-07T01:35:16;8.65;;;3.70;;
43706;SDS011;61348;53.392;-6.248;2023-05-07T01:37:46;7.82;;;3.35;;
43706;SDS011;61348;53.392;-6.248;2023-05-07T01:40:14;11.18;;;3.03;;
43706;SDS011;61348;53.392;-6.248;2023-05-07T01:42:41;8.80;;;3.17;;
43706;SDS011;61348;53.392;-6.248;2023-05-07T01:45:10;12.90;;;3.05;;
43706;SDS011;61348;53.392;-6.248;2023-05-07T01:47:37;11.35;;;3.72;;
43706;SDS011;61348;53.392;-6.248;2023-05-07T01:50:07;12.18;;;5.25;;
43706;SDS011;61348;53.392;-6.248;2023-05-07T01:52:37;10.45;;;3.33;;
43706;SDS011;61348;53.392;-6.248;2023-05-07T01:55:05;6.38;;;3.00;;
43706;SDS011;61348;53.392;-6.248;2023-05-07T01:57:32;8.63;;;3.63;;
43706;SDS011;61348;53.392;-6.248;2023-05-07T01:59:59;7.32;;;3.63;;
43706;SDS011;61348;53.392;-6.248;2023-05-07T02:02:26;5.45;;;2.70;;
43706;SDS011;61348;53.392;-6.248;2023-05-07T02:04:53;11.65;;;3.22;;
43706;SDS011;61348;53.392;-6.248;2023-05-07T02:07:20;8.02;;;3.47;;
43706;SDS011;61348;53.392;-6.248;2023-05-07T02:09:46;10.45;;;3.15;;
43706;SDS011;61348;53.392;-6.248;2023-05-07T02:12:13;13.13;;;3.65;;
43706;SDS011;61348;53.392;-6.248;2023-05-07T02:14:40;12.35;;;3.20;;
43706;SDS011;61348;53.392;-6.248;2023-05-07T02:17:07;8.85;;;3.00;;
43706;SDS011;61348;53.392;-6.248;2023-05-07T02:19:34;9.07;;;3.38;;
43706;SDS011;61348;53.392;-6.248;2023-05-07T02:22:01;9.77;;;3.35;;
43706;SDS011;61348;53.392;-6.248;2023-05-07T02:24:28;8.77;;;3.80;;
43706;SDS011;61348;53.392;-6.248;2023-05-07T02:26:55;7.63;;;2.97;;
43706;SDS011;61348;53.392;-6.248;2023-05-07T02:29:21;7.65;;;3.53;;
43706;SDS011;61348;53.392;-6.248;2023-05-07T02:31:48;9.93;;;3.75;;
43706;SDS011;61348;53.392;-6.248;2023-05-07T02:34:19;7.47;;;3.42;;
43706;SDS011;61348;53.392;-6.248;2023-05-07T02:36:46;10.20;;;3.22;;
43706;SDS011;61348;53.392;-6.248;2023-05-07T02:39:13;10.55;;;3.50;;
43706;SDS011;61348;53.392;-6.248;2023-05-07T02:41:40;9.70;;;3.28;;
43706;SDS011;61348;53.392;-6.248;2023-05-07T02:44:07;10.23;;;3.38;;
43706;SDS011;61348;53.392;-6.248;2023-05-07T02:46:34;5.65;;;3.25;;
43706;SDS011;61348;53.392;-6.248;2023-05-07T02:49:01;7.20;;;3.35;;
43706;SDS011;61348;53.392;-6.248;2023-05-07T02:51:27;13.13;;;2.90;;
43706;SDS011;61348;53.392;-6.248;2023-05-07T02:53:54;8.55;;;3.13;;
43706;SDS011;61348;53.392;-6.248;2023-05-07T02:56:21;6.20;;;2.90;;
43706;SDS011;61348;53.392;-6.248;2023-05-07T02:58:48;7.75;;;3.63;;
43706;SDS011;61348;53.392;-6.248;2023-05-07T03:01:15;11.20;;;3.53;;
43706;SDS011;61348;53.392;-6.248;2023-05-07T03:03:42;8.98;;;3.33;;
43706;SDS011;61348;53.392;-6.248;2023-05-07T03:06:09;12.98;;;3.20;;
43706;SDS011;61348;53.392;-6.248;2023-05-07T03:08:36;9.68;;;3.40;;
43706;SDS011;61348;53.392;-6.248;2023-05-07T03:11:03;14.48;;;3.40;;
43706;SDS011;61348;53.392;-6.248;2023-05-07T03:13:29;8.07;;;3.33;;
43706;SDS011;61348;53.392;-6.248;2023-05-07T03:15:56;7.63;;;3.63;;
43706;SDS011;61348;53.392;-6.248;2023-05-07T03:18:23;8.32;;;3.17;;
43706;SDS011;61348;53.392;-6.248;2023-05-07T03:20:51;5.85;;;3.17;;
43706;SDS011;61348;53.392;-6.248;2023-05-07T03:23:18;5.45;;;3.08;;
43706;SDS011;61348;53.392;-6.248;2023-05-07T03:25:45;13.57;;;4.43;;
43706;SDS011;61348;53.392;-6.248;2023-05-07T03:28:11;7.47;;;3.38;;
43706;SDS011;61348;53.392;-6.248;2023-05-07T03:30:38;15.05;;;3.60;;
43706;SDS011;61348;53.392;-6.248;2023-05-07T03:33:05;5.85;;;3.28;;
43706;SDS011;61348;53.392;-6.248;2023-05-07T03:35:32;9.85;;;3.40;;
43706;SDS011;61348;53.392;-6.248;2023-05-07T03:37:58;5.28;;;3.45;;
43706;SDS011;61348;53.392;-6.248;2023-05-07T03:40:25;5.50;;;3.40;;
43706;SDS011;61348;53.392;-6.248;2023-05-07T03:42:52;7.32;;;3.00;;
43706;SDS011;61348;53.392;-6.248;2023-05-07T03:45:19;9.50;;;3.00;;
43706;SDS011;61348;53.392;-6.248;2023-05-07T03:47:46;7.47;;;3.47;;
43706;SDS011;61348;53.392;-6.248;2023-05-07T03:50:12;9.20;;;3.08;;
43706;SDS011;61348;53.392;-6.248;2023-05-07T03:52:39;11.65;;;3.70;;
43706;SDS011;61348;53.392;-6.248;2023-05-07T03:55:07;8.77;;;2.83;;
43706;SDS011;61348;53.392;-6.248;2023-05-07T03:57:34;8.32;;;3.15;;
43706;SDS011;61348;53.392;-6.248;2023-05-07T04:00:01;9.35;;;2.95;;
43706;SDS011;61348;53.392;-6.248;2023-05-07T04:02:28;9.93;;;2.90;;
43706;SDS011;61348;53.392;-6.248;2023-05-07T04:04:55;7.80;;;2.70;;
43706;SDS011;61348;53.392;-6.248;2023-05-07T04:07:22;6.00;;;3.17;;
43706;SDS011;61348;53.392;-6.248;2023-05-07T04:09:49;4.72;;;2.33;;
43706;SDS011;61348;53.392;-6.248;2023-05-07T04:12:16;5.88;;;3.47;;
43706;SDS011;61348;53.392;-6.248;2023-05-07T04:14:43;4.95;;;2.60;;
43706;SDS011;61348;53.392;-6.248;2023-05-07T04:17:09;5.80;;;2.42;;
43706;SDS011;61348;53.392;-6.248;2023-05-07T04:19:37;5.78;;;2.83;;
43706;SDS011;61348;53.392;-6.248;2023-05-07T04:22:04;7.50;;;1.92;;
43706;SDS011;61348;53.392;-6.248;2023-05-07T04:24:31;6.40;;;2.95;;
43706;SDS011;61348;53.392;-6.248;2023-05-07T04:26:58;4.22;;;2.22;;
43706;SDS011;61348;53.392;-6.248;2023-05-07T04:29:26;7.63;;;2.53;;
43706;SDS011;61348;53.392;-6.248;2023-05-07T04:31:53;8.10;;;2.58;;
43706;SDS011;61348;53.392;-6.248;2023-05-07T04:34:22;3.45;;;2.45;;
43706;SDS011;61348;53.392;-6.248;2023-05-07T04:36:48;7.70;;;2.70;;
43706;SDS011;61348;53.392;-6.248;2023-05-07T04:39:15;8.48;;;2.78;;
43706;SDS011;61348;53.392;-6.248;2023-05-07T04:41:42;7.10;;;2.35;;
43706;SDS011;61348;53.392;-6.248;2023-05-07T04:44:09;7.68;;;2.47;;
43706;SDS011;61348;53.392;-6.248;2023-05-07T04:46:37;8.40;;;2.55;;
43706;SDS011;61348;53.392;-6.248;2023-05-07T04:49:04;6.70;;;2.65;;
43706;SDS011;61348;53.392;-6.248;2023-05-07T04:51:32;6.70;;;2.80;;
43706;SDS011;61348;53.392;-6.248;2023-05-07T04:53:59;10.00;;;3.90;;
43706;SDS011;61348;53.392;-6.248;2023-05-07T04:56:27;6.10;;;2.40;;
43706;SDS011;61348;53.392;-6.248;2023-05-07T04:58:55;6.65;;;3.65;;
43706;SDS011;61348;53.392;-6.248;2023-05-07T05:01:22;4.45;;;2.47;;
43706;SDS011;61348;53.392;-6.248;2023-05-07T05:03:49;6.00;;;2.20;;
43706;SDS011;61348;53.392;-6.248;2023-05-07T05:06:16;5.53;;;2.50;;
43706;SDS011;61348;53.392;-6.248;2023-05-07T05:08:42;6.28;;;2.60;;
43706;SDS011;61348;53.392;-6.248;2023-05-07T05:11:09;5.32;;;2.00;;
43706;SDS011;61348;53.392;-6.248;2023-05-07T05:13:36;8.35;;;2.20;;
43706;SDS011;61348;53.392;-6.248;2023-05-07T05:16:03;4.28;;;2.65;;
43706;SDS011;61348;53.392;-6.248;2023-05-07T05:18:30;5.70;;;2.78;;
43706;SDS011;61348;53.392;-6.248;2023-05-07T05:20:57;9.77;;;4.03;;
43706;SDS011;61348;53.392;-6.248;2023-05-07T05:23:24;5.70;;;2.30;;
43706;SDS011;61348;53.392;-6.248;2023-05-07T05:25:54;4.43;;;2.38;;
43706;SDS011;61348;53.392;-6.248;2023-05-07T05:28:22;8.95;;;2.65;;
43706;SDS011;61348;53.392;-6.248;2023-05-07T05:30:50;5.40;;;2.38;;
43706;SDS011;61348;53.392;-6.248;2023-05-07T05:33:17;8.50;;;2.53;;
43706;SDS011;61348;53.392;-6.248;2023-05-07T05:35:43;9.45;;;3.05;;
43706;SDS011;61348;53.392;-6.248;2023-05-07T05:38:10;3.15;;;2.25;;
43706;SDS011;61348;53.392;-6.248;2023-05-07T05:40:37;8.75;;;3.10;;
43706;SDS011;61348;53.392;-6.248;2023-05-07T05:43:04;4.97;;;2.47;;
43706;SDS011;61348;53.392;-6.248;2023-05-07T05:45:30;5.80;;;2.42;;
43706;SDS011;61348;53.392;-6.248;2023-05-07T05:47:57;8.48;;;2.60;;
43706;SDS011;61348;53.392;-6.248;2023-05-07T05:50:24;9.63;;;3.90;;
43706;SDS011;61348;53.392;-6.248;2023-05-07T05:52:51;6.25;;;2.65;;
43706;SDS011;61348;53.392;-6.248;2023-05-07T05:55:18;4.50;;;2.17;;
43706;SDS011;61348;53.392;-6.248;2023-05-07T05:57:44;3.97;;;2.55;;
43706;SDS011;61348;53.392;-6.248;2023-05-07T06:00:12;6.63;;;2.58;;
43706;SDS011;61348;53.392;-6.248;2023-05-07T06:02:40;7.95;;;3.67;;
43706;SDS011;61348;53.392;-6.248;2023-05-07T06:05:07;7.80;;;3.63;;
43706;SDS011;61348;53.392;-6.248;2023-05-07T06:07:34;5.50;;;2.85;;
43706;SDS011;61348;53.392;-6.248;2023-05-07T06:10:01;5.55;;;2.50;;
43706;SDS011;61348;53.392;-6.248;2023-05-07T06:12:28;7.15;;;2.60;;
43706;SDS011;61348;53.392;-6.248;2023-05-07T06:14:55;6.85;;;3.30;;
43706;SDS011;61348;53.392;-6.248;2023-05-07T06:17:22;7.78;;;2.20;;
43706;SDS011;61348;53.392;-6.248;2023-05-07T06:19:49;5.03;;;2.38;;
43706;SDS011;61348;53.392;-6.248;2023-05-07T06:22:15;6.15;;;2.30;;
43706;SDS011;61348;53.392;-6.248;2023-05-07T06:24:42;3.92;;;2.17;;
43706;SDS011;61348;53.392;-6.248;2023-05-07T06:27:09;3.15;;;2.10;;
43706;SDS011;61348;53.392;-6.248;2023-05-07T06:29:36;5.80;;;2.45;;
43706;SDS011;61348;53.392;-6.248;2023-05-07T06:32:10;5.68;;;2.20;;
43706;SDS011;61348;53.392;-6.248;2023-05-07T06:34:38;5.18;;;2.60;;
43706;SDS011;61348;53.392;-6.248;2023-05-07T06:37:05;5.15;;;2.63;;
43706;SDS011;61348;53.392;-6.248;2023-05-07T06:39:32;4.72;;;2.85;;
43706;SDS011;61348;53.392;-6.248;2023-05-07T06:42:00;6.28;;;3.30;;
43706;SDS011;61348;53.392;-6.248;2023-05-07T06:44:28;5.70;;;2.90;;
43706;SDS011;61348;53.392;-6.248;2023-05-07T06:46:54;7.35;;;2.97;;
43706;SDS011;61348;53.392;-6.248;2023-05-07T06:49:21;8.23;;;3.80;;
43706;SDS011;61348;53.392;-6.248;2023-05-07T06:51:48;5.20;;;3.13;;
43706;SDS011;61348;53.392;-6.248;2023-05-07T06:54:15;6.53;;;3.53;;
43706;SDS011;61348;53.392;-6.248;2023-05-07T06:56:42;4.90;;;3.08;;
43706;SDS011;61348;53.392;-6.248;2023-05-07T06:59:09;5.97;;;2.88;;
43706;SDS011;61348;53.392;-6.248;2023-05-07T07:01:36;5.47;;;2.40;;
43706;SDS011;61348;53.392;-6.248;2023-05-07T07:04:04;9.82;;;3.85;;
43706;SDS011;61348;53.392;-6.248;2023-05-07T07:06:30;6.65;;;2.10;;
43706;SDS011;61348;53.392;-6.248;2023-05-07T07:08:58;6.55;;;2.78;;
43706;SDS011;61348;53.392;-6.248;2023-05-07T07:11:26;4.88;;;2.10;;
43706;SDS011;61348;53.392;-6.248;2023-05-07T07:13:52;6.75;;;2.05;;
43706;SDS011;61348;53.392;-6.248;2023-05-07T07:16:21;10.15;;;2.53;;
43706;SDS011;61348;53.392;-6.248;2023-05-07T07:18:48;5.05;;;2.22;;
43706;SDS011;61348;53.392;-6.248;2023-05-07T07:21:15;6.40;;;2.65;;
43706;SDS011;61348;53.392;-6.248;2023-05-07T07:23:41;9.32;;;3.13;;
43706;SDS011;61348;53.392;-6.248;2023-05-07T07:26:08;5.53;;;2.33;;
43706;SDS011;61348;53.392;-6.248;2023-05-07T07:28:35;8.63;;;2.83;;
43706;SDS011;61348;53.392;-6.248;2023-05-07T07:31:11;5.78;;;2.20;;
43706;SDS011;61348;53.392;-6.248;2023-05-07T07:33:38;6.70;;;2.08;;
43706;SDS011;61348;53.392;-6.248;2023-05-07T07:36:06;8.45;;;2.30;;
43706;SDS011;61348;53.392;-6.248;2023-05-07T07:38:34;4.60;;;1.92;;
43706;SDS011;61348;53.392;-6.248;2023-05-07T07:41:01;7.97;;;2.10;;
43706;SDS011;61348;53.392;-6.248;2023-05-07T07:43:28;4.75;;;1.42;;
43706;SDS011;61348;53.392;-6.248;2023-05-07T07:45:55;5.35;;;1.92;;
43706;SDS011;61348;53.392;-6.248;2023-05-07T07:48:22;3.85;;;1.63;;
43706;SDS011;61348;53.392;-6.248;2023-05-07T07:50:49;4.68;;;1.45;;
43706;SDS011;61348;53.392;-6.248;2023-05-07T07:53:17;3.15;;;1.45;;
43706;SDS011;61348;53.392;-6.248;2023-05-07T07:55:45;6.25;;;1.67;;
43706;SDS011;61348;53.392;-6.248;2023-05-07T07:58:12;5.43;;;1.60;;
43706;SDS011;61348;53.392;-6.248;2023-05-07T08:00:39;5.22;;;1.80;;
43706;SDS011;61348;53.392;-6.248;2023-05-07T08:03:05;8.13;;;1.92;;
43706;SDS011;61348;53.392;-6.248;2023-05-07T08:05:35;8.77;;;2.20;;
43706;SDS011;61348;53.392;-6.248;2023-05-07T08:08:02;9.30;;;2.80;;
43706;SDS011;61348;53.392;-6.248;2023-05-07T08:10:30;6.38;;;2.05;;
43706;SDS011;61348;53.392;-6.248;2023-05-07T08:13:00;7.38;;;1.92;;
43706;SDS011;61348;53.392;-6.248;2023-05-07T08:15:29;3.28;;;1.73;;
43706;SDS011;61348;53.392;-6.248;2023-05-07T08:17:57;8.95;;;2.13;;
43706;SDS011;61348;53.392;-6.248;2023-05-07T08:20:26;6.70;;;2.20;;
43706;SDS011;61348;53.392;-6.248;2023-05-07T08:22:53;2.67;;;1.73;;
43706;SDS011;61348;53.392;-6.248;2023-05-07T08:25:20;2.67;;;1.60;;
43706;SDS011;61348;53.392;-6.248;2023-05-07T08:27:47;6.38;;;1.73;;
43706;SDS011;61348;53.392;-6.248;2023-05-07T08:30:14;6.10;;;1.60;;
43706;SDS011;61348;53.392;-6.248;2023-05-07T08:32:41;2.67;;;1.20;;
43706;SDS011;61348;53.392;-6.248;2023-05-07T08:35:08;5.82;;;1.40;;
43706;SDS011;61348;53.392;-6.248;2023-05-07T08:37:35;5.80;;;1.58;;
43706;SDS011;61348;53.392;-6.248;2023-05-07T08:40:02;3.28;;;1.30;;
43706;SDS011;61348;53.392;-6.248;2023-05-07T08:42:31;4.00;;;1.88;;
43706;SDS011;61348;53.392;-6.248;2023-05-07T08:45:03;4.40;;;1.58;;
43706;SDS011;61348;53.392;-6.248;2023-05-07T08:47:34;2.15;;;0.98;;
43706;SDS011;61348;53.392;-6.248;2023-05-07T08:50:08;4.10;;;1.15;;
43706;SDS011;61348;53.392;-6.248;2023-05-07T08:52:36;4.05;;;1.00;;
43706;SDS011;61348;53.392;-6.248;2023-05-07T08:55:03;4.00;;;1.17;;
43706;SDS011;61348;53.392;-6.248;2023-05-07T08:57:31;4.07;;;1.10;;
43706;SDS011;61348;53.392;-6.248;2023-05-07T09:00:02;2.97;;;1.40;;
43706;SDS011;61348;53.392;-6.248;2023-05-07T09:02:30;3.30;;;1.50;;
43706;SDS011;61348;53.392;-6.248;2023-05-07T09:04:57;4.47;;;1.10;;
43706;SDS011;61348;53.392;-6.248;2023-05-07T09:07:24;4.10;;;1.40;;
43706;SDS011;61348;53.392;-6.248;2023-05-07T09:09:52;3.63;;;1.40;;
43706;SDS011;61348;53.392;-6.248;2023-05-07T09:12:21;5.38;;;1.35;;
43706;SDS011;61348;53.392;-6.248;2023-05-07T09:14:48;3.13;;;1.25;;
43706;SDS011;61348;53.392;-6.248;2023-05-07T09:17:16;3.63;;;1.77;;
43706;SDS011;61348;53.392;-6.248;2023-05-07T09:19:44;4.78;;;1.77;;
43706;SDS011;61348;53.392;-6.248;2023-05-07T09:22:14;6.15;;;1.48;;
43706;SDS011;61348;53.392;-6.248;2023-05-07T09:24:41;5.75;;;1.50;;
43706;SDS011;61348;53.392;-6.248;2023-05-07T09:27:14;3.45;;;1.00;;
43706;SDS011;61348;53.392;-6.248;2023-05-07T09:29:41;2.20;;;1.35;;
43706;SDS011;61348;53.392;-6.248;2023-05-07T09:32:09;5.53;;;1.55;;
43706;SDS011;61348;53.392;-6.248;2023-05-07T09:34:36;4.82;;;1.45;;
43706;SDS011;61348;53.392;-6.248;2023-05-07T09:37:03;4.95;;;1.40;;
43706;SDS011;61348;53.392;-6.248;2023-05-07T09:42:14;5.15;;;1.67;;
43706;SDS011;61348;53.392;-6.248;2023-05-07T09:44:42;3.47;;;1.77;;
43706;SDS011;61348;53.392;-6.248;2023-05-07T09:47:10;3.30;;;1.50;;
43706;SDS011;61348;53.392;-6.248;2023-05-07T09:49:43;4.85;;;1.75;;
43706;SDS011;61348;53.392;-6.248;2023-05-07T09:52:14;1.75;;;1.35;;
43706;SDS011;61348;53.392;-6.248;2023-05-07T09:54:42;4.50;;;1.30;;
43706;SDS011;61348;53.392;-6.248;2023-05-07T09:57:10;3.67;;;1.48;;
43706;SDS011;61348;53.392;-6.248;2023-05-07T09:59:42;6.10;;;1.90;;
43706;SDS011;61348;53.392;-6.248;2023-05-07T10:02:10;4.68;;;1.23;;
43706;SDS011;61348;53.392;-6.248;2023-05-07T10:04:39;4.65;;;1.92;;
43706;SDS011;61348;53.392;-6.248;2023-05-07T10:07:06;2.20;;;1.00;;
43706;SDS011;61348;53.392;-6.248;2023-05-07T10:09:35;3.83;;;1.48;;
43706;SDS011;61348;53.392;-6.248;2023-05-07T10:12:05;3.67;;;1.02;;
43706;SDS011;61348;53.392;-6.248;2023-05-07T10:14:32;3.67;;;1.30;;
43706;SDS011;61348;53.392;-6.248;2023-05-07T10:17:00;5.35;;;1.75;;
43706;SDS011;61348;53.392;-6.248;2023-05-07T10:19:29;1.60;;;1.20;;
43706;SDS011;61348;53.392;-6.248;2023-05-07T10:21:56;7.20;;;1.55;;
43706;SDS011;61348;53.392;-6.248;2023-05-07T10:24:31;2.65;;;1.13;;
43706;SDS011;61348;53.392;-6.248;2023-05-07T10:27:08;3.63;;;2.10;;
43706;SDS011;61348;53.392;-6.248;2023-05-07T10:34:55;4.85;;;1.50;;
43706;SDS011;61348;53.392;-6.248;2023-05-07T10:37:25;4.13;;;1.02;;
43706;SDS011;61348;53.392;-6.248;2023-05-07T10:39:52;3.13;;;1.10;;
43706;SDS011;61348;53.392;-6.248;2023-05-07T10:42:19;4.30;;;1.27;;
43706;SDS011;61348;53.392;-6.248;2023-05-07T10:44:46;4.18;;;1.38;;
43706;SDS011;61348;53.392;-6.248;2023-05-07T10:47:14;4.65;;;1.40;;
43706;SDS011;61348;53.392;-6.248;2023-05-07T10:52:13;5.00;;;2.83;;
43706;SDS011;61348;53.392;-6.248;2023-05-07T10:54:45;3.65;;;1.40;;
43706;SDS011;61348;53.392;-6.248;2023-05-07T10:59:57;6.22;;;1.88;;
43706;SDS011;61348;53.392;-6.248;2023-05-07T11:03:04;2.72;;;1.95;;
43706;SDS011;61348;53.392;-6.248;2023-05-07T11:05:41;3.13;;;1.70;;
43706;SDS011;61348;53.392;-6.248;2023-05-07T11:08:09;3.25;;;1.75;;
43706;SDS011;61348;53.392;-6.248;2023-05-07T11:10:52;2.17;;;1.50;;
43706;SDS011;61348;53.392;-6.248;2023-05-07T11:13:43;2.30;;;1.40;;
43706;SDS011;61348;53.392;-6.248;2023-05-07T11:16:24;3.20;;;1.35;;
43706;SDS011;61348;53.392;-6.248;2023-05-07T11:18:54;4.22;;;1.63;;
43706;SDS011;61348;53.392;-6.248;2023-05-07T11:21:35;3.28;;;1.40;;
43706;SDS011;61348;53.392;-6.248;2023-05-07T11:24:04;3.37;;;1.40;;
43706;SDS011;61348;53.392;-6.248;2023-05-07T11:26:49;2.75;;;1.50;;
43706;SDS011;61348;53.392;-6.248;2023-05-07T11:29:17;4.72;;;1.67;;
43706;SDS011;61348;53.392;-6.248;2023-05-07T11:31:48;1.40;;;1.25;;
43706;SDS011;61348;53.392;-6.248;2023-05-07T11:34:22;2.27;;;1.10;;
43706;SDS011;61348;53.392;-6.248;2023-05-07T11:36:51;2.22;;;1.30;;
43706;SDS011;61348;53.392;-6.248;2023-05-07T11:42:01;3.85;;;1.58;;
43706;SDS011;61348;53.392;-6.248;2023-05-07T11:44:44;2.40;;;1.95;;
43706;SDS011;61348;53.392;-6.248;2023-05-07T11:47:21;3.05;;;2.03;;
43706;SDS011;61348;53.392;-6.248;2023-05-07T11:49:49;3.70;;;1.50;;
43706;SDS011;61348;53.392;-6.248;2023-05-07T11:52:17;5.05;;;1.67;;
43706;SDS011;61348;53.392;-6.248;2023-05-07T11:55:03;6.35;;;2.28;;
43706;SDS011;61348;53.392;-6.248;2023-05-07T11:57:32;5.45;;;2.55;;
43706;SDS011;61348;53.392;-6.248;2023-05-07T11:59:59;5.40;;;2.55;;
43706;SDS011;61348;53.392;-6.248;2023-05-07T12:02:28;4.68;;;1.85;;
43706;SDS011;61348;53.392;-6.248;2023-05-07T12:04:55;2.17;;;1.10;;
43706;SDS011;61348;53.392;-6.248;2023-05-07T12:07:23;4.50;;;2.22;;
43706;SDS011;61348;53.392;-6.248;2023-05-07T12:09:51;1.30;;;0.82;;
43706;SDS011;61348;53.392;-6.248;2023-05-07T12:12:18;2.65;;;1.30;;
43706;SDS011;61348;53.392;-6.248;2023-05-07T12:14:45;3.42;;;1.38;;
43706;SDS011;61348;53.392;-6.248;2023-05-07T12:17:13;5.65;;;1.83;;
43706;SDS011;61348;53.392;-6.248;2023-05-07T12:19:41;3.25;;;1.40;;
43706;SDS011;61348;53.392;-6.248;2023-05-07T12:22:10;4.57;;;1.83;;
43706;SDS011;61348;53.392;-6.248;2023-05-07T12:24:46;5.88;;;1.92;;
43706;SDS011;61348;53.392;-6.248;2023-05-07T12:27:15;4.60;;;2.00;;
43706;SDS011;61348;53.392;-6.248;2023-05-07T12:29:48;3.65;;;1.90;;
43706;SDS011;61348;53.392;-6.248;2023-05-07T12:32:17;6.95;;;2.40;;
43706;SDS011;61348;53.392;-6.248;2023-05-07T12:34:46;3.58;;;1.95;;
43706;SDS011;61348;53.392;-6.248;2023-05-07T12:37:16;4.50;;;2.17;;
43706;SDS011;61348;53.392;-6.248;2023-05-07T12:39:49;8.07;;;2.92;;
43706;SDS011;61348;53.392;-6.248;2023-05-07T12:42:32;9.10;;;3.55;;
43706;SDS011;61348;53.392;-6.248;2023-05-07T12:45:11;7.78;;;2.92;;
43706;SDS011;61348;53.392;-6.248;2023-05-07T12:47:43;7.10;;;1.80;;
43706;SDS011;61348;53.392;-6.248;2023-05-07T12:52:39;2.22;;;1.27;;
43706;SDS011;61348;53.392;-6.248;2023-05-07T12:55:07;4.40;;;2.08;;
43706;SDS011;61348;53.392;-6.248;2023-05-07T12:57:38;2.63;;;1.38;;
43706;SDS011;61348;53.392;-6.248;2023-05-07T13:00:06;6.00;;;1.77;;
43706;SDS011;61348;53.392;-6.248;2023-05-07T13:02:34;6.47;;;1.33;;
43706;SDS011;61348;53.392;-6.248;2023-05-07T13:05:04;6.65;;;1.20;;
43706;SDS011;61348;53.392;-6.248;2023-05-07T13:07:31;7.25;;;1.17;;
43706;SDS011;61348;53.392;-6.248;2023-05-07T13:09:58;3.70;;;1.70;;
43706;SDS011;61348;53.392;-6.248;2023-05-07T13:12:24;4.65;;;1.40;;
43706;SDS011;61348;53.392;-6.248;2023-05-07T13:14:51;4.18;;;1.52;;
43706;SDS011;61348;53.392;-6.248;2023-05-07T13:17:18;3.75;;;1.80;;
43706;SDS011;61348;53.392;-6.248;2023-05-07T13:19:45;4.63;;;1.42;;
43706;SDS011;61348;53.392;-6.248;2023-05-07T13:22:12;2.13;;;1.63;;
43706;SDS011;61348;53.392;-6.248;2023-05-07T13:24:39;4.65;;;1.70;;
43706;SDS011;61348;53.392;-6.248;2023-05-07T13:27:08;2.78;;;1.23;;
43706;SDS011;61348;53.392;-6.248;2023-05-07T13:29:34;1.60;;;0.50;;
43706;SDS011;61348;53.392;-6.248;2023-05-07T13:32:01;16.67;;;1.60;;
43706;SDS011;61348;53.392;-6.248;2023-05-07T13:34:28;2.75;;;0.60;;
43706;SDS011;61348;53.392;-6.248;2023-05-07T13:36:55;1.50;;;0.60;;
43706;SDS011;61348;53.392;-6.248;2023-05-07T13:39:22;2.70;;;0.95;;
43706;SDS011;61348;53.392;-6.248;2023-05-07T13:41:49;1.13;;;0.80;;
43706;SDS011;61348;53.392;-6.248;2023-05-07T13:44:16;2.08;;;0.80;;
43706;SDS011;61348;53.392;-6.248;2023-05-07T13:46:42;1.55;;;0.50;;
43706;SDS011;61348;53.392;-6.248;2023-05-07T13:49:09;2.35;;;0.80;;
43706;SDS011;61348;53.392;-6.248;2023-05-07T13:51:37;1.60;;;0.50;;
43706;SDS011;61348;53.392;-6.248;2023-05-07T13:54:04;3.13;;;0.63;;
43706;SDS011;61348;53.392;-6.248;2023-05-07T13:56:31;0.85;;;0.55;;
43706;SDS011;61348;53.392;-6.248;2023-05-07T13:58:58;2.63;;;0.80;;
43706;SDS011;61348;53.392;-6.248;2023-05-07T14:01:26;0.95;;;0.47;;
43706;SDS011;61348;53.392;-6.248;2023-05-07T14:03:55;1.02;;;0.55;;
43706;SDS011;61348;53.392;-6.248;2023-05-07T14:06:23;0.75;;;0.60;;
43706;SDS011;61348;53.392;-6.248;2023-05-07T14:08:50;0.65;;;0.50;;
43706;SDS011;61348;53.392;-6.248;2023-05-07T14:11:17;0.60;;;0.50;;
43706;SDS011;61348;53.392;-6.248;2023-05-07T14:13:44;4.50;;;2.25;;
43706;SDS011;61348;53.392;-6.248;2023-05-07T14:16:11;1.98;;;0.50;;
43706;SDS011;61348;53.392;-6.248;2023-05-07T14:18:38;5.05;;;1.08;;
43706;SDS011;61348;53.392;-6.248;2023-05-07T14:21:05;2.08;;;0.75;;
43706;SDS011;61348;53.392;-6.248;2023-05-07T14:23:36;1.40;;;0.73;;
43706;SDS011;61348;53.392;-6.248;2023-05-07T14:26:03;1.33;;;0.60;;
43706;SDS011;61348;53.392;-6.248;2023-05-07T14:28:30;1.33;;;0.60;;
43706;SDS011;61348;53.392;-6.248;2023-05-07T14:30:57;3.75;;;0.82;;
43706;SDS011;61348;53.392;-6.248;2023-05-07T14:33:24;2.70;;;0.73;;
43706;SDS011;61348;53.392;-6.248;2023-05-07T14:35:51;4.60;;;0.70;;
43706;SDS011;61348;53.392;-6.248;2023-05-07T14:38:18;2.75;;;1.05;;
43706;SDS011;61348;53.392;-6.248;2023-05-07T14:40:47;1.45;;;0.50;;
43706;SDS011;61348;53.392;-6.248;2023-05-07T14:43:14;1.90;;;0.70;;
43706;SDS011;61348;53.392;-6.248;2023-05-07T14:45:40;1.98;;;0.90;;
43706;SDS011;61348;53.392;-6.248;2023-05-07T14:48:07;1.70;;;0.70;;
43706;SDS011;61348;53.392;-6.248;2023-05-07T14:50:35;2.10;;;0.95;;
43706;SDS011;61348;53.392;-6.248;2023-05-07T14:53:02;1.15;;;0.70;;
43706;SDS011;61348;53.392;-6.248;2023-05-07T14:55:30;1.23;;;0.52;;
43706;SDS011;61348;53.392;-6.248;2023-05-07T14:57:59;1.30;;;0.60;;
43706;SDS011;61348;53.392;-6.248;2023-05-07T15:00:26;2.53;;;0.60;;